Time;durP1;ratioP1;P1;durP2;ratioP2;P2;SDS_P1;SDS_P2;PMS_P1;PMS_P2;Temp;Humidity;BMP_temperature;BMP_pressure;BME280_temperature;BME280_humidity;BME280_pressure;Samples;Min_cycle;Max_cycle;Signal;HPM_P1;HPM_P2
2022/01/17 00:01:07;;;;;;;;;54.00;43.00;;;;;5.97;90.58;103014.25;5077302;28;45403;-85
2022/01/17 00:03:33;;;;;;;;;50.00;42.33;;;;;5.91;90.27;103007.59;5076634;28;45642;-85
2022/01/17 00:05:58;;;;;;;;;45.00;35.67;;;;;5.74;90.75;102988.81;5077260;28;45351;-84
2022/01/17 00:08:24;;;;;;;;;48.67;42.33;;;;;5.66;90.59;102975.03;5077265;28;45420;-85
2022/01/17 00:10:53;;;;;;;;;50.33;39.33;;;;;6.00;90.71;103026.72;5077442;28;45514;-85
2022/01/17 00:13:25;;;;;;;;;44.00;39.00;;;;;5.95;90.22;103015.81;5076721;28;46322;-84
2022/01/17 00:15:57;;;;;;;;;47.00;38.67;;;;;5.70;90.21;102973.56;5075757;28;46097;-84
2022/01/17 00:21:18;;;;;;;;;37.00;35.00;;;;;5.94;90.13;103018.34;5066053;28;45623;-85
2022/01/17 00:23:44;;;;;;;;;46.67;34.33;;;;;5.98;90.43;103025.72;5056835;28;46166;-85
2022/01/17 00:26:10;;;;;;;;;53.67;39.67;;;;;5.78;90.58;102977.69;5055230;28;45635;-85
2022/01/17 00:28:35;;;;;;;;;45.33;41.00;;;;;5.72;90.63;102974.59;5055232;28;45361;-85
2022/01/17 00:31:04;;;;;;;;;44.33;34.00;;;;;5.87;90.87;103011.69;5056690;28;45441;-85
2022/01/17 00:33:30;;;;;;;;;59.00;45.00;;;;;5.83;91.44;103014.91;5055092;28;48140;-85
2022/01/17 00:35:56;;;;;;;;;46.67;38.33;;;;;5.53;91.48;102951.25;5056630;28;45379;-84
2022/01/17 00:38:21;;;;;;;;;59.00;47.67;;;;;5.71;91.26;102978.03;5056527;28;45396;-84
2022/01/17 00:40:46;;;;;;;;;55.00;42.67;;;;;5.86;91.56;103003.69;5056926;28;45366;-85
2022/01/17 00:43:12;;;;;;;;;55.67;41.00;;;;;5.91;91.17;103000.59;5054526;28;48178;-84
2022/01/17 00:45:40;;;;;;;;;50.67;41.67;;;;;5.94;91.37;102999.91;5055349;28;45593;-84
2022/01/17 00:48:06;;;;;;;;;54.33;42.33;;;;;6.03;90.86;103023.41;5056472;28;45222;-85
2022/01/17 00:50:32;;;;;;;;;56.33;46.00;;;;;5.99;91.35;103027.53;5056162;28;45523;-85
2022/01/17 00:53:03;;;;;;;;;50.67;41.00;;;;;5.87;91.75;103016.06;5056362;28;45561;-85
2022/01/17 00:55:29;;;;;;;;;51.00;42.33;;;;;5.79;92.10;102997.94;5056413;28;45640;-85
2022/01/17 00:57:54;;;;;;;;;48.00;40.33;;;;;5.92;91.96;103019.94;5054643;28;45343;-84
2022/01/17 01:00:20;;;;;;;;;48.00;38.00;;;;;5.69;92.25;102981.34;5072047;28;45219;-84
2022/01/17 01:02:48;;;;;;;;;58.00;44.33;;;;;5.90;92.31;103016.28;5076592;27;45517;-84
2022/01/17 01:05:14;;;;;;;;;56.00;42.33;;;;;5.94;92.03;103028.88;5076195;27;45500;-85
2022/01/17 01:07:39;;;;;;;;;44.33;39.00;;;;;5.92;92.50;103014.66;5076419;27;45468;-85
2022/01/17 01:10:10;;;;;;;;;43.33;35.00;;;;;5.93;91.96;103005.97;5075208;28;45330;-84
2022/01/17 01:12:36;;;;;;;;;53.33;41.67;;;;;5.97;92.13;103005.41;5076085;27;46378;-84
2022/01/17 01:15:05;;;;;;;;;49.67;39.00;;;;;5.70;91.63;102955.13;5075147;27;45471;-84
2022/01/17 01:17:37;;;;;;;;;46.33;37.67;;;;;5.76;91.83;102967.84;5076586;28;45320;-85
2022/01/17 01:28:26;;;;;;;;;49.67;42.00;;;;;6.00;92.22;103008.28;5074105;28;45395;-84
2022/01/17 01:30:54;;;;;;;;;51.00;38.00;;;;;6.09;91.48;103006.34;5057250;28;45434;-85
2022/01/17 01:33:30;;;;;;;;;48.33;38.67;;;;;6.07;91.35;103001.75;5073647;28;46353;-84
2022/01/17 01:36:05;;;;;;;;;58.00;42.67;;;;;5.90;91.97;102988.22;5073895;28;45459;-85
2022/01/17 01:38:31;;;;;;;;;45.33;37.67;;;;;5.78;93.17;103011.00;5073858;28;45427;-85
2022/01/17 01:40:58;;;;;;;;;37.00;32.33;;;;;5.65;93.51;102983.78;5073822;28;45488;-85
2022/01/17 01:43:23;;;;;;;;;59.00;45.00;;;;;5.66;93.48;102980.31;5073240;28;46169;-84
2022/01/17 01:45:51;;;;;;;;;49.67;38.00;;;;;5.74;93.35;102993.13;5073641;28;45418;-84
2022/01/17 01:48:19;;;;;;;;;51.00;40.33;;;;;5.47;93.40;102950.75;5073526;28;45288;-84
2022/01/17 01:50:46;;;;;;;;;49.00;38.67;;;;;5.55;93.35;102970.69;5074020;28;45635;-85
2022/01/17 01:53:11;;;;;;;;;36.67;31.67;;;;;5.55;93.81;102975.06;5056623;28;47159;-85
2022/01/17 01:55:36;;;;;;;;;48.00;40.00;;;;;5.80;93.54;103005.03;5073294;28;45530;-85
2022/01/17 01:58:02;;;;;;;;;45.33;36.33;;;;;5.69;93.83;102978.72;5073477;28;45507;-85
2022/01/17 02:00:27;;;;;;;;;52.67;43.67;;;;;5.92;93.07;103019.94;5075360;28;45479;-85
2022/01/17 02:02:53;;;;;;;;;47.67;40.00;;;;;5.72;92.58;102990.38;5074329;28;46975;-84
2022/01/17 02:05:18;;;;;;;;;51.33;41.67;;;;;5.67;92.72;102978.63;5074130;28;45461;-85
2022/01/17 02:07:45;;;;;;;;;45.67;40.33;;;;;5.85;93.08;103008.06;5075926;27;45480;-84
2022/01/17 02:10:12;;;;;;;;;51.00;39.00;;;;;5.58;92.54;102959.47;5073936;28;45524;-84
2022/01/17 02:12:37;;;;;;;;;44.00;37.67;;;;;5.99;92.73;103025.81;5091207;27;47311;-84
2022/01/17 02:15:04;;;;;;;;;46.33;36.00;;;;;6.02;92.19;103014.59;5075483;27;45410;-84
2022/01/17 02:17:32;;;;;;;;;51.00;39.67;;;;;6.05;91.91;103006.91;5091231;27;45455;-84
2022/01/17 02:20:06;;;;;;;;;48.33;42.00;;;;;6.01;91.37;103003.13;5074202;28;45402;-84
2022/01/17 02:22:31;;;;;;;;;40.33;34.33;;;;;6.00;91.54;103003.00;5075160;27;45322;-84
2022/01/17 02:24:57;;;;;;;;;52.67;42.33;;;;;5.82;91.89;102963.94;5075115;28;45235;-84
2022/01/17 02:27:22;;;;;;;;;45.00;36.67;;;;;5.82;91.99;102963.00;5078455;27;45213;-84
2022/01/17 02:29:48;;;;;;;;;47.00;39.67;;;;;6.08;91.80;102999.22;5079005;27;45341;-84
2022/01/17 02:32:13;;;;;;;;;59.33;41.67;;;;;6.06;91.76;103000.84;5077444;28;47048;-84
2022/01/17 02:34:41;;;;;;;;;52.33;41.33;;;;;5.92;91.91;102972.50;5077208;28;45372;-84
2022/01/17 02:37:07;;;;;;;;;53.00;42.67;;;;;6.01;91.71;102979.41;5079255;27;45441;-85
2022/01/17 02:39:32;;;;;;;;;55.33;41.67;;;;;5.99;91.82;102969.56;5077173;28;45508;-85
2022/01/17 02:42:01;;;;;;;;;57.00;43.67;;;;;5.83;91.94;102955.22;5078840;27;45417;-85
2022/01/17 02:44:26;;;;;;;;;40.00;37.67;;;;;5.89;91.98;102969.66;5078899;27;45351;-85
2022/01/17 02:46:52;;;;;;;;;46.67;40.00;;;;;5.58;91.70;102897.19;5078948;27;45296;-84
2022/01/17 02:49:17;;;;;;;;;37.00;32.67;;;;;5.82;91.71;102945.50;5078727;27;45299;-85
2022/01/17 02:51:47;;;;;;;;;58.67;46.33;;;;;5.80;92.09;102947.09;5094205;27;47233;-85
2022/01/17 02:54:12;;;;;;;;;54.33;42.67;;;;;6.19;91.90;103010.56;5078204;28;45394;-84
2022/01/17 02:56:38;;;;;;;;;60.67;48.00;;;;;5.96;92.14;102966.66;5078553;27;45330;-85
2022/01/17 02:59:03;;;;;;;;;54.00;41.00;;;;;6.01;92.21;102986.41;5078157;27;45396;-85
2022/01/17 03:01:29;;;;;;;;;52.00;42.00;;;;;6.21;91.97;103018.59;5077146;28;47187;-85
2022/01/17 03:03:56;;;;;;;;;58.00;48.00;;;;;6.07;91.83;102988.56;5078178;27;45457;-84
2022/01/17 03:06:22;;;;;;;;;55.33;44.00;;;;;6.04;91.86;102977.81;5078384;27;45364;-84
2022/01/17 03:08:47;;;;;;;;;48.33;37.00;;;;;6.07;91.43;102980.66;5076777;28;45569;-84
2022/01/17 03:11:20;;;;;;;;;55.33;44.67;;;;;6.05;91.44;102975.28;5079064;27;46290;-85
2022/01/17 03:13:47;;;;;;;;;53.33;42.33;;;;;6.30;91.04;103012.25;5076796;28;45476;-84
2022/01/17 03:16:16;;;;;;;;;59.00;43.00;;;;;6.44;91.05;103033.44;5077090;28;45275;-84
2022/01/17 03:18:50;;;;;;;;;52.67;41.67;;;;;6.39;90.20;103017.28;5076753;28;45600;-84
2022/01/17 03:21:18;;;;;;;;;52.00;43.00;;;;;6.49;90.37;103024.13;5077931;27;46535;-87
2022/01/17 03:23:46;;;;;;;;;52.33;40.67;;;;;6.45;89.54;103007.16;5077657;28;45298;-84
2022/01/17 03:26:11;;;;;;;;;54.33;41.00;;;;;6.53;89.26;103021.81;5078179;27;45521;-85
2022/01/17 03:28:38;;;;;;;;;60.67;45.33;;;;;6.45;89.32;103012.44;5077859;27;45742;-84
2022/01/17 03:31:04;;;;;;;;;48.00;37.33;;;;;6.50;89.67;103024.25;5076726;28;48112;-84
2022/01/17 03:33:31;;;;;;;;;56.67;42.00;;;;;6.60;89.41;103039.00;5077803;27;45709;-84
2022/01/17 03:35:56;;;;;;;;;45.00;37.00;;;;;6.43;89.38;103024.63;5078048;27;45311;-84
2022/01/17 03:38:24;;;;;;;;;47.00;36.67;;;;;6.40;89.71;103016.50;5076554;27;45394;-84
2022/01/17 03:40:51;;;;;;;;;53.00;40.67;;;;;6.53;89.78;103044.66;5077752;28;45439;-84
2022/01/17 03:43:22;;;;;;;;;50.00;40.67;;;;;6.47;89.61;103033.63;5077728;27;45235;-84
2022/01/17 03:45:49;;;;;;;;;39.67;36.33;;;;;6.36;89.52;103022.34;5077888;28;45469;-85
2022/01/17 03:48:16;;;;;;;;;50.67;40.33;;;;;6.55;89.95;103040.41;5076494;28;45396;-84
2022/01/17 03:50:47;;;;;;;;;40.00;35.67;;;;;6.50;89.45;103018.97;5077769;28;45509;-85
2022/01/17 03:53:12;;;;;;;;;51.33;41.67;;;;;6.74;89.69;103063.75;5077750;27;45390;-85
2022/01/17 03:55:38;;;;;;;;;40.00;35.00;;;;;6.53;88.75;103019.19;5076203;28;45411;-85
2022/01/17 03:58:07;;;;;;;;;49.67;39.67;;;;;6.68;89.11;103071.19;5076166;28;45422;-85
2022/01/17 04:00:38;;;;;;;;;44.00;37.67;;;;;6.72;89.26;103073.25;5077318;27;46226;-84
2022/01/17 04:03:03;;;;;;;;;53.00;41.33;;;;;6.77;88.63;103073.63;5076174;28;46098;-84
2022/01/17 04:05:29;;;;;;;;;53.00;42.33;;;;;6.55;88.64;103052.69;5092900;27;45432;-84
2022/01/17 04:07:54;;;;;;;;;43.33;38.33;;;;;6.61;89.14;103074.22;5077504;28;45479;-84
2022/01/17 04:10:20;;;;;;;;;46.67;39.00;;;;;6.43;89.24;103036.91;5077130;27;45306;-84
2022/01/17 04:12:45;;;;;;;;;43.00;37.33;;;;;6.65;88.50;103064.00;5077064;27;45394;-84
2022/01/17 04:15:12;;;;;;;;;46.33;39.00;;;;;6.62;88.95;103060.22;5077397;27;45378;-84
2022/01/17 04:17:40;;;;;;;;;39.33;36.00;;;;;6.81;88.86;103088.84;5075843;28;45234;-85
2022/01/17 04:20:09;;;;;;;;;49.00;41.00;;;;;6.42;88.09;103011.31;5092453;27;47015;-84
2022/01/17 04:22:40;;;;;;;;;45.67;39.67;;;;;6.38;88.02;103015.44;5075486;28;45707;-84
2022/01/17 04:25:06;;;;;;;;;41.33;36.00;;;;;6.07;87.94;102963.13;5075747;28;45244;-84
2022/01/17 04:27:32;;;;;;;;;41.67;37.67;;;;;6.87;87.44;103097.22;5075620;28;45409;-84
2022/01/17 04:29:58;;;;;;;;;46.00;40.67;;;;;6.63;87.68;103052.41;5076706;27;45918;-85
2022/01/17 04:32:23;;;;;;;;;43.33;35.33;;;;;6.41;87.39;103001.56;5076873;27;45433;-84
2022/01/17 04:34:49;;;;;;;;;39.00;34.00;;;;;6.69;87.42;103041.38;5076605;27;45496;-84
2022/01/17 04:37:15;;;;;;;;;41.00;36.00;;;;;6.62;87.18;103033.84;5076905;27;45587;-84
2022/01/17 04:39:40;;;;;;;;;46.67;39.33;;;;;6.43;87.16;103016.69;5075454;28;47304;-84
2022/01/17 04:42:12;;;;;;;;;48.00;39.67;;;;;6.76;87.81;103071.78;5076914;27;45516;-84
2022/01/17 04:47:24;;;;;;;;;42.67;38.33;;;;;6.78;87.88;103080.69;5076819;28;45512;-84
2022/01/17 04:49:49;;;;;;;;;39.33;37.00;;;;;6.67;87.88;103049.19;5074831;28;47278;-84
2022/01/17 04:52:15;;;;;;;;;39.00;32.67;;;;;6.90;87.17;103086.88;5076455;27;45399;-84
2022/01/17 04:54:42;;;;;;;;;44.67;39.67;;;;;6.58;87.18;103044.97;5076184;27;45448;-84
2022/01/17 04:57:09;;;;;;;;;45.00;37.67;;;;;6.50;87.49;103026.88;5074112;28;45533;-84
2022/01/17 04:59:35;;;;;;;;;56.33;42.33;;;;;6.67;87.44;103066.75;5075884;28;45423;-84
2022/01/17 05:02:01;;;;;;;;;44.33;39.00;;;;;6.63;87.39;103067.34;5076509;28;45263;-84
2022/01/17 05:04:26;;;;;;;;;48.33;40.33;;;;;6.67;87.93;103070.31;5074895;28;45761;-85
2022/01/17 05:06:51;;;;;;;;;51.00;42.67;;;;;6.24;87.90;103001.25;5075170;28;45511;-84
2022/01/17 05:09:17;;;;;;;;;50.00;40.33;;;;;6.61;88.55;103071.56;5076233;27;49323;-84
2022/01/17 05:11:43;;;;;;;;;45.00;38.00;;;;;6.29;88.81;103044.69;5076035;27;45999;-85
2022/01/17 05:14:08;;;;;;;;;47.67;39.33;;;;;6.11;88.76;103017.00;5075347;28;45461;-85
2022/01/17 05:16:39;;;;;;;;;40.00;34.00;;;;;5.63;89.19;102932.69;5074993;28;45632;-84
2022/01/17 05:21:48;;;;;;;;;54.00;41.33;;;;;6.41;88.98;103071.03;5076048;28;45273;-84
2022/01/17 05:24:14;;;;;;;;;45.00;37.67;;;;;6.48;88.65;103075.03;5076288;27;45510;-84
2022/01/17 05:26:39;;;;;;;;;53.67;38.33;;;;;6.46;88.59;103063.47;5076308;28;45330;-83
2022/01/17 05:29:04;;;;;;;;;39.00;37.00;;;;;6.53;87.96;103071.03;5074776;28;48548;-84
2022/01/17 05:31:30;;;;;;;;;54.67;39.00;;;;;6.49;87.89;103072.50;5074708;28;45280;-84
2022/01/17 05:33:55;;;;;;;;;37.00;31.67;;;;;6.59;88.14;103103.13;5074663;28;45425;-84
2022/01/17 05:36:21;;;;;;;;;43.00;40.00;;;;;6.23;88.28;103044.25;5075074;28;45556;-84
2022/01/17 05:38:46;;;;;;;;;51.00;40.00;;;;;6.24;87.66;103042.53;5074473;28;47359;-84
2022/01/17 05:41:11;;;;;;;;;52.00;39.33;;;;;6.45;87.85;103094.19;5074531;28;45425;-84
2022/01/17 05:43:37;;;;;;;;;49.67;40.33;;;;;6.40;87.48;103082.41;5075834;27;45288;-84
2022/01/17 05:46:02;;;;;;;;;53.00;40.33;;;;;5.97;87.27;103019.50;5074569;28;45537;-84
2022/01/17 05:48:27;;;;;;;;;56.67;42.33;;;;;6.27;87.19;103092.84;5075915;28;46469;-84
2022/01/17 05:50:53;;;;;;;;;52.67;39.00;;;;;6.33;88.07;103119.66;5074575;28;45628;-84
2022/01/17 05:53:18;;;;;;;;;46.33;37.00;;;;;5.87;88.65;103053.84;5074605;28;45354;-84
2022/01/17 05:55:44;;;;;;;;;53.67;42.67;;;;;5.81;88.87;103062.22;5075789;27;45420;-84
2022/01/17 05:58:11;;;;;;;;;43.00;33.33;;;;;6.24;89.16;103125.16;5074135;28;47280;-84
2022/01/17 06:00:36;;;;;;;;;49.67;38.67;;;;;6.23;89.11;103123.34;5074674;28;45740;-84
2022/01/17 06:03:02;;;;;;;;;46.33;40.00;;;;;6.05;88.89;103095.56;5078831;28;45367;-84
2022/01/17 06:05:27;;;;;;;;;44.33;38.67;;;;;5.91;89.25;103086.63;5077912;28;45603;-84
2022/01/17 06:07:52;;;;;;;;;46.33;39.67;;;;;5.83;89.40;103099.19;5078925;28;45293;-84
2022/01/17 06:10:18;;;;;;;;;52.00;40.67;;;;;5.62;90.15;103082.69;5078950;28;45259;-84
2022/01/17 06:12:43;;;;;;;;;49.33;42.00;;;;;5.61;91.01;103087.03;5077636;28;45287;-84
2022/01/17 06:15:09;;;;;;;;;52.67;42.00;;;;;5.67;90.87;103092.75;5078982;28;45524;-84
2022/01/17 06:17:34;;;;;;;;;51.33;42.00;;;;;5.61;90.43;103062.41;5080526;28;45337;-84
2022/01/17 06:19:59;;;;;;;;;53.00;44.00;;;;;5.74;90.63;103107.31;5078720;28;45330;-84
2022/01/17 06:22:25;;;;;;;;;48.00;38.33;;;;;5.29;90.96;103061.75;5077530;28;45322;-84
2022/01/17 06:24:51;;;;;;;;;51.00;40.00;;;;;5.37;91.32;103075.50;5078861;28;45169;-84
2022/01/17 06:27:17;;;;;;;;;46.67;39.00;;;;;5.75;91.67;103139.84;5078720;28;45396;-84
2022/01/17 06:29:43;;;;;;;;;57.33;43.33;;;;;5.29;91.46;103067.03;5077292;28;45347;-84
2022/01/17 06:32:08;;;;;;;;;48.67;40.33;;;;;4.98;91.41;103005.84;5064281;28;45342;-84
2022/01/17 06:34:33;;;;;;;;;51.00;42.67;;;;;5.48;90.64;103106.25;5057010;28;45581;-84
2022/01/17 06:36:59;;;;;;;;;51.33;44.33;;;;;5.58;90.26;103110.47;5056952;28;47951;-84
2022/01/17 06:39:24;;;;;;;;;53.00;39.33;;;;;5.65;90.51;103125.03;5057133;28;45456;-84
2022/01/17 06:41:50;;;;;;;;;56.67;44.67;;;;;5.78;90.52;103162.09;5056845;28;45493;-84
2022/01/17 06:44:16;;;;;;;;;53.67;41.00;;;;;5.27;90.08;103078.22;5058329;28;45379;-84
2022/01/17 06:46:41;;;;;;;;;49.00;41.33;;;;;5.13;89.60;103053.47;5057895;28;46109;-84
2022/01/17 06:49:07;;;;;;;;;53.00;43.33;;;;;5.72;89.26;103164.22;5056877;28;45869;-84
2022/01/17 06:51:32;;;;;;;;;57.67;45.67;;;;;5.88;89.40;103187.41;5057106;28;45887;-84
2022/01/17 06:53:57;;;;;;;;;49.33;40.67;;;;;5.58;89.23;103135.91;5056410;28;45541;-85
2022/01/17 06:56:23;;;;;;;;;52.00;41.33;;;;;5.94;89.16;103192.25;5056412;28;48140;-85
2022/01/17 06:58:48;;;;;;;;;48.67;38.33;;;;;5.54;89.20;103094.34;5057536;28;45480;-85
2022/01/17 07:01:14;;;;;;;;;45.67;39.67;;;;;5.58;88.96;103083.25;5057868;28;45467;-84
2022/01/17 07:03:40;;;;;;;;;51.67;43.67;;;;;5.58;87.92;103076.25;5058179;28;45488;-84
2022/01/17 07:06:06;;;;;;;;;50.67;39.00;;;;;6.09;87.63;103166.16;5058087;28;46420;-84
2022/01/17 07:08:31;;;;;;;;;53.33;41.67;;;;;5.98;87.92;103157.47;5057799;28;45244;-85
2022/01/17 07:10:57;;;;;;;;;46.67;40.33;;;;;5.78;87.92;103119.00;5056432;28;45256;-84
2022/01/17 07:13:25;;;;;;;;;46.33;41.00;;;;;5.97;88.08;103156.53;5056492;28;45408;-85
2022/01/17 07:15:50;;;;;;;;;53.33;43.33;;;;;6.05;87.40;103203.63;5055686;28;47188;-84
2022/01/17 07:18:16;;;;;;;;;53.33;40.67;;;;;5.85;87.89;103174.03;5057643;28;45557;-85
2022/01/17 07:20:41;;;;;;;;;51.67;41.67;;;;;5.96;87.84;103211.72;5056400;28;45425;-84
2022/01/17 07:23:07;;;;;;;;;46.00;39.67;;;;;5.89;87.54;103215.56;5057727;28;45358;-85
2022/01/17 07:25:32;;;;;;;;;56.33;45.00;;;;;5.83;87.79;103202.84;5056446;28;46916;-85
2022/01/17 07:27:58;;;;;;;;;59.67;44.67;;;;;5.92;87.55;103225.44;5056127;28;45425;-85
2022/01/17 07:30:24;;;;;;;;;49.00;40.67;;;;;5.76;86.93;103178.56;5056143;28;45891;-84
2022/01/17 07:32:50;;;;;;;;;61.67;47.67;;;;;5.66;87.20;103150.59;5057361;28;45354;-82
2022/01/17 07:35:15;;;;;;;;;57.33;47.33;;;;;5.88;87.11;103200.59;5054749;27;47789;-87
2022/01/17 07:37:41;;;;;;;;;57.67;46.67;;;;;5.58;87.60;103159.59;5067986;28;45514;-87
2022/01/17 07:40:08;;;;;;;;;60.67;47.33;;;;;5.63;87.67;103155.63;5074161;27;45923;-86
2022/01/17 07:42:34;;;;;;;;;52.00;42.33;;;;;5.97;87.70;103205.66;5071945;28;45788;-87
2022/01/17 07:45:08;;;;;;;;;59.33;46.00;;;;;5.97;87.45;103203.94;5062327;28;48318;-85
2022/01/17 07:47:56;;;;;;;;;53.00;40.33;;;;;5.83;87.05;103180.88;5067797;28;45412;-86
2022/01/17 07:50:23;;;;;;;;;56.67;44.00;;;;;5.66;87.28;103148.84;5086857;27;45436;-86
2022/01/17 07:52:51;;;;;;;;;62.67;47.00;;;;;5.81;86.80;103178.13;5067396;28;45386;-86
2022/01/17 07:55:19;;;;;;;;;60.00;48.00;;;;;5.62;86.78;103152.06;5076560;27;48059;-87
2022/01/17 07:57:45;;;;;;;;;64.67;46.67;;;;;5.76;87.56;103192.63;5072010;27;45517;-86
2022/01/17 08:00:14;;;;;;;;;56.33;41.67;;;;;5.34;88.05;103125.28;5072403;28;45983;-85
2022/01/17 08:02:39;;;;;;;;;62.33;47.00;;;;;5.48;87.97;103156.28;5070266;28;45426;-86
2022/01/17 08:05:05;;;;;;;;;55.00;45.00;;;;;5.96;88.35;103233.72;5070108;28;45410;-87
2022/01/17 08:07:31;;;;;;;;;57.33;44.67;;;;;6.09;87.90;103256.72;5074418;28;45421;-85
2022/01/17 08:09:57;;;;;;;;;54.33;42.67;;;;;5.62;88.10;103173.13;5072846;27;45232;-84
2022/01/17 08:12:22;;;;;;;;;60.33;44.67;;;;;5.91;88.19;103223.63;5072633;27;45428;-85
2022/01/17 08:14:47;;;;;;;;;59.00;45.00;;;;;5.52;88.05;103156.50;5070571;28;51073;-85
2022/01/17 08:17:13;;;;;;;;;55.33;42.33;;;;;5.63;88.37;103184.59;5068834;28;45743;-86
2022/01/17 08:19:38;;;;;;;;;55.00;42.00;;;;;5.50;88.40;103141.50;5064469;28;45429;-84
2022/01/17 08:22:05;;;;;;;;;60.00;45.00;;;;;6.04;87.50;103213.25;5068742;27;45531;-87
2022/01/17 08:24:35;;;;;;;;;60.00;45.00;;;;;5.92;87.79;103210.56;5073993;28;48131;-87
2022/01/17 08:27:01;;;;;;;;;61.00;45.33;;;;;5.37;88.07;103138.69;5069217;27;45412;-88
2022/01/17 08:29:28;;;;;;;;;62.00;48.00;;;;;4.90;87.82;103062.19;5074436;28;45449;-85
2022/01/17 08:31:54;;;;;;;;;59.67;44.67;;;;;5.97;88.35;103229.38;5069269;28;45550;-84
2022/01/17 08:34:19;;;;;;;;;57.67;44.33;;;;;6.15;87.94;103243.09;5075705;27;45452;-83
2022/01/17 08:36:46;;;;;;;;;59.67;49.00;;;;;6.28;87.76;103273.94;5068574;28;45553;-83
2022/01/17 08:39:12;;;;;;;;;60.33;48.33;;;;;6.17;88.72;103273.09;5072234;28;45281;-83
2022/01/17 08:41:42;;;;;;;;;59.67;46.33;;;;;6.14;88.52;103257.97;5073091;28;45607;-84
2022/01/17 08:44:08;;;;;;;;;66.33;47.00;;;;;5.75;88.19;103171.44;5069695;27;46648;-84
2022/01/17 08:46:33;;;;;;;;;44.33;31.67;;;;;6.00;87.85;103204.22;5062159;28;45359;-85
2022/01/17 08:48:58;;;;;;;;;58.67;44.67;;;;;6.13;87.42;103215.69;5072561;27;45396;-83
2022/01/17 08:51:24;;;;;;;;;59.67;46.00;;;;;6.60;87.47;103281.69;5069393;27;45527;-84
2022/01/17 08:53:49;;;;;;;;;56.33;45.00;;;;;6.01;86.85;103184.03;5065227;28;45468;-86
2022/01/17 08:56:15;;;;;;;;;57.33;45.00;;;;;6.57;87.15;103273.53;5072623;27;45488;-86
2022/01/17 08:58:40;;;;;;;;;58.00;45.33;;;;;6.66;86.87;103278.59;5066947;27;45528;-85
2022/01/17 09:01:08;;;;;;;;;61.00;48.00;;;;;6.56;86.38;103241.78;5068107;28;45563;-85
2022/01/17 09:03:33;;;;;;;;;58.33;44.67;;;;;5.90;86.45;103124.31;5068650;28;47636;-83
2022/01/17 09:05:59;;;;;;;;;42.00;38.33;;;;;6.73;86.30;103269.44;5072421;27;45172;-85
2022/01/17 09:08:25;;;;;;;;;58.33;41.33;;;;;6.45;86.10;103204.94;5068285;28;45346;-85
2022/01/17 09:10:54;;;;;;;;;58.33;47.33;;;;;6.43;85.64;103211.84;5069888;28;45598;-85
2022/01/17 09:13:20;;;;;;;;;64.00;48.33;;;;;6.37;85.79;103207.81;5071841;28;47523;-85
2022/01/17 09:15:45;;;;;;;;;68.00;48.67;;;;;6.28;85.89;103194.84;5071743;27;45422;-85
2022/01/17 09:18:14;;;;;;;;;61.33;47.00;;;;;6.24;86.06;103213.88;5072629;27;45378;-84
2022/01/17 09:20:40;;;;;;;;;56.33;45.33;;;;;6.39;86.26;103245.78;5068575;27;45484;-84
2022/01/17 09:23:05;;;;;;;;;59.67;47.00;;;;;6.49;86.26;103266.75;5068881;28;47629;-84
2022/01/17 09:25:32;;;;;;;;;56.33;43.00;;;;;6.87;86.62;103321.50;5071659;27;45497;-84
2022/01/17 09:27:58;;;;;;;;;63.67;49.00;;;;;6.64;86.13;103272.28;5069936;27;45454;-85
2022/01/17 09:30:23;;;;;;;;;55.33;44.67;;;;;6.37;85.46;103218.34;5073579;27;45582;-86
2022/01/17 09:32:49;;;;;;;;;62.67;48.00;;;;;6.83;85.55;103299.22;5072188;28;47962;-85
2022/01/17 09:35:14;;;;;;;;;51.33;42.33;;;;;6.89;85.69;103337.44;5071040;28;45490;-84
2022/01/17 09:37:41;;;;;;;;;60.33;45.00;;;;;6.75;86.64;103346.94;5069954;27;45822;-83
2022/01/17 09:40:08;;;;;;;;;61.67;47.67;;;;;6.77;86.91;103355.94;5073005;27;45436;-86
2022/01/17 09:42:36;;;;;;;;;45.00;39.67;;;;;6.46;86.85;103279.72;5063529;28;46684;-84
2022/01/17 09:45:04;;;;;;;;;24.33;23.33;;;;;6.84;86.74;103331.84;5060830;28;45587;-84
2022/01/17 09:47:31;;;;;;;;;51.33;42.67;;;;;6.97;86.60;103345.13;5067003;28;45635;-84
2022/01/17 09:49:56;;;;;;;;;58.00;42.67;;;;;6.84;85.81;103316.91;5071513;27;45533;-84
2022/01/17 09:52:34;;;;;;;;;56.33;44.00;;;;;6.73;85.43;103311.63;5061342;27;46152;-84
2022/01/17 09:55:05;;;;;;;;;58.33;46.67;;;;;6.85;85.93;103350.41;5061372;27;45416;-84
2022/01/17 09:57:34;;;;;;;;;50.33;39.67;;;;;6.75;86.30;103326.78;5071760;27;45343;-84
2022/01/17 10:00:00;;;;;;;;;56.67;45.67;;;;;6.72;86.17;103310.69;5074011;27;45425;-84
2022/01/17 10:02:25;;;;;;;;;56.33;44.67;;;;;6.99;86.05;103354.09;5068485;28;48096;-84
2022/01/17 10:04:51;;;;;;;;;58.00;45.00;;;;;6.93;86.13;103336.88;5066174;28;45681;-83
2022/01/17 10:07:16;;;;;;;;;58.67;48.67;;;;;6.97;85.71;103323.13;5066450;27;45442;-85
2022/01/17 10:09:54;;;;;;;;;59.00;48.33;;;;;7.06;85.38;103318.53;5061905;28;45362;-85
2022/01/17 10:12:20;;;;;;;;;61.67;49.00;;;;;7.27;84.26;103350.91;5075933;27;47906;-85
2022/01/17 10:15:03;;;;;;;;;63.00;47.33;;;;;6.99;85.11;103303.97;5062870;28;45580;-85
2022/01/17 10:17:46;;;;;;;;;57.67;47.00;;;;;6.21;84.67;103150.38;5066408;28;45395;-85
2022/01/17 10:20:15;;;;;;;;;54.67;43.33;;;;;7.53;84.95;103387.16;5067085;28;45507;-85
2022/01/17 10:23:06;;;;;;;;;60.33;48.33;;;;;7.27;84.19;103327.13;5068304;27;46246;-84
2022/01/17 10:25:50;;;;;;;;;59.67;47.00;;;;;7.15;84.02;103326.22;5066230;27;45386;-84
2022/01/17 10:36:17;;;;;;;;;60.33;47.33;;;;;7.56;83.92;103345.09;5064312;28;45346;-84
2022/01/17 10:38:42;;;;;;;;;56.33;45.33;;;;;7.57;83.85;103340.75;5062985;28;45367;-84
2022/01/17 10:41:08;;;;;;;;;59.67;47.67;;;;;7.65;83.90;103341.28;5067088;28;45466;-85
2022/01/17 10:43:42;;;;;;;;;61.33;47.33;;;;;7.66;83.68;103337.84;5063576;27;45466;-85
2022/01/17 10:46:11;;;;;;;;;59.67;45.33;;;;;8.01;83.79;103397.63;5071017;28;45487;-83
2022/01/17 10:48:41;;;;;;;;;62.67;47.00;;;;;8.06;83.16;103380.38;5066211;27;45230;-84
2022/01/17 10:51:08;;;;;;;;;58.67;43.67;;;;;7.90;83.09;103346.63;5068304;28;45437;-84
2022/01/17 10:53:33;;;;;;;;;64.00;48.00;;;;;7.96;82.84;103351.44;5065517;28;48189;-86
2022/01/17 10:56:07;;;;;;;;;57.67;45.33;;;;;7.87;82.89;103326.16;5062896;27;45469;-85
2022/01/17 10:58:35;;;;;;;;;58.67;46.33;;;;;8.06;81.56;103340.72;5071469;28;45518;-82
2022/01/17 11:01:04;;;;;;;;;59.67;47.00;;;;;7.68;82.31;103297.53;5061449;27;45622;-81
2022/01/17 11:03:33;;;;;;;;;50.33;40.33;;;;;7.80;83.38;103329.19;5067411;28;46757;-83
2022/01/17 11:06:03;;;;;;;;;62.00;51.33;;;;;7.43;83.66;103275.44;5068319;27;45607;-86
2022/01/17 11:08:30;;;;;;;;;70.00;54.25;;;;;7.57;83.43;103293.19;5065467;28;45548;-83
2022/01/17 11:10:58;;;;;;;;;60.33;49.33;;;;;7.64;84.29;103302.50;5066584;28;45554;-81
2022/01/17 11:13:29;;;;;;;;;60.00;50.50;;;;;7.13;83.94;103201.09;5065537;28;46391;-83
2022/01/17 11:15:57;;;;;;;;;63.00;47.33;;;;;7.78;83.63;103341.38;5068115;27;45516;-81
2022/01/17 11:18:27;;;;;;;;;62.00;48.25;;;;;7.24;84.39;103238.84;5068665;28;45828;-81
2022/01/17 11:20:59;;;;;;;;;68.67;53.00;;;;;7.95;84.13;103334.66;5065283;28;45791;-81
2022/01/17 11:23:27;;;;;;;;;67.00;52.67;;;;;8.00;83.30;103337.63;5061244;28;46918;-82
2022/01/17 11:25:55;;;;;;;;;55.33;47.00;;;;;7.51;83.16;103240.84;5054311;28;45426;-82
2022/01/17 11:28:32;;;;;;;;;52.67;43.33;;;;;8.01;83.31;103305.09;5065318;27;46461;-84
2022/01/17 11:30:59;;;;;;;;;61.00;49.67;;;;;7.83;83.18;103273.00;5064622;27;45612;-82
2022/01/17 11:33:25;;;;;;;;;61.00;50.00;;;;;7.86;82.52;103275.84;5058374;28;46189;-82
2022/01/17 11:35:54;;;;;;;;;56.33;44.67;;;;;7.98;83.10;103286.38;5073593;27;45522;-82
2022/01/17 11:38:39;;;;;;;;;52.00;42.33;;;;;7.87;82.79;103246.88;5070275;27;45523;-82
2022/01/17 11:41:05;;;;;;;;;59.33;46.00;;;;;7.73;81.35;103237.06;5062693;27;45774;-83